sensor_id;sensor_type;location;lat;lon;timestamp;P1;durP1;ratioP1;P2;durP2;ratioP2
70080;SDS011;57452;50.496;30.504;2022-07-01T00:00:55;9.23;;;8.07;;
70080;SDS011;57452;50.496;30.504;2022-07-01T00:03:22;8.85;;;7.95;;
70080;SDS011;57452;50.496;30.504;2022-07-01T00:05:50;8.45;;;7.65;;
70080;SDS011;57452;50.496;30.504;2022-07-01T00:08:17;9.63;;;8.63;;
70080;SDS011;57452;50.496;30.504;2022-07-01T00:10:45;9.57;;;8.68;;
70080;SDS011;57452;50.496;30.504;2022-07-01T00:13:12;10.77;;;8.13;;
70080;SDS011;57452;50.496;30.504;2022-07-01T00:15:39;15.52;;;9.10;;
70080;SDS011;57452;50.496;30.504;2022-07-01T00:18:07;10.68;;;8.88;;
70080;SDS011;57452;50.496;30.504;2022-07-01T00:20:34;8.73;;;7.82;;
70080;SDS011;57452;50.496;30.504;2022-07-01T00:23:02;9.68;;;8.70;;
70080;SDS011;57452;50.496;30.504;2022-07-01T00:25:29;12.00;;;8.18;;
70080;SDS011;57452;50.496;30.504;2022-07-01T00:27:57;9.90;;;8.18;;
70080;SDS011;57452;50.496;30.504;2022-07-01T00:30:24;8.73;;;7.88;;
70080;SDS011;57452;50.496;30.504;2022-07-01T00:32:52;10.07;;;8.55;;
70080;SDS011;57452;50.496;30.504;2022-07-01T00:35:20;9.05;;;8.13;;
70080;SDS011;57452;50.496;30.504;2022-07-01T00:37:47;8.50;;;7.60;;
70080;SDS011;57452;50.496;30.504;2022-07-01T00:40:15;7.72;;;7.03;;
70080;SDS011;57452;50.496;30.504;2022-07-01T00:42:42;7.85;;;6.78;;
70080;SDS011;57452;50.496;30.504;2022-07-01T00:45:10;7.95;;;6.93;;
70080;SDS011;57452;50.496;30.504;2022-07-01T00:47:39;8.70;;;7.80;;
70080;SDS011;57452;50.496;30.504;2022-07-01T00:50:08;8.60;;;6.82;;
70080;SDS011;57452;50.496;30.504;2022-07-01T00:52:36;9.13;;;7.40;;
70080;SDS011;57452;50.496;30.504;2022-07-01T00:55:03;9.55;;;6.78;;
70080;SDS011;57452;50.496;30.504;2022-07-01T00:57:32;10.40;;;8.23;;
70080;SDS011;57452;50.496;30.504;2022-07-01T01:00:00;8.63;;;7.75;;
70080;SDS011;57452;50.496;30.504;2022-07-01T01:02:28;9.25;;;7.38;;
70080;SDS011;57452;50.496;30.504;2022-07-01T01:04:56;8.07;;;7.25;;
70080;SDS011;57452;50.496;30.504;2022-07-01T01:07:24;10.02;;;8.68;;
70080;SDS011;57452;50.496;30.504;2022-07-01T01:09:51;11.50;;;9.70;;
70080;SDS011;57452;50.496;30.504;2022-07-01T01:12:19;11.55;;;10.27;;
70080;SDS011;57452;50.496;30.504;2022-07-01T01:14:47;12.57;;;9.23;;
70080;SDS011;57452;50.496;30.504;2022-07-01T01:17:15;12.10;;;8.98;;
70080;SDS011;57452;50.496;30.504;2022-07-01T01:19:44;9.98;;;8.55;;
70080;SDS011;57452;50.496;30.504;2022-07-01T01:22:14;14.40;;;9.52;;
70080;SDS011;57452;50.496;30.504;2022-07-01T01:24:44;10.68;;;9.50;;
70080;SDS011;57452;50.496;30.504;2022-07-01T01:27:15;10.10;;;8.25;;
70080;SDS011;57452;50.496;30.504;2022-07-01T01:29:43;10.25;;;9.05;;
70080;SDS011;57452;50.496;30.504;2022-07-01T01:32:10;10.40;;;8.00;;
70080;SDS011;57452;50.496;30.504;2022-07-01T01:34:38;9.20;;;8.30;;
70080;SDS011;57452;50.496;30.504;2022-07-01T01:37:07;11.77;;;9.50;;
70080;SDS011;57452;50.496;30.504;2022-07-01T01:39:36;12.05;;;10.75;;
70080;SDS011;57452;50.496;30.504;2022-07-01T01:42:06;12.50;;;9.55;;
70080;SDS011;57452;50.496;30.504;2022-07-01T01:44:34;10.77;;;9.65;;
70080;SDS011;57452;50.496;30.504;2022-07-01T01:47:02;11.82;;;9.85;;
70080;SDS011;57452;50.496;30.504;2022-07-01T01:49:29;9.57;;;8.32;;
70080;SDS011;57452;50.496;30.504;2022-07-01T01:51:57;9.05;;;7.43;;
70080;SDS011;57452;50.496;30.504;2022-07-01T01:54:28;9.77;;;8.30;;
70080;SDS011;57452;50.496;30.504;2022-07-01T01:56:55;10.38;;;7.68;;
70080;SDS011;57452;50.496;30.504;2022-07-01T01:59:23;8.10;;;6.97;;
70080;SDS011;57452;50.496;30.504;2022-07-01T02:01:50;8.85;;;7.63;;
70080;SDS011;57452;50.496;30.504;2022-07-01T02:04:17;8.98;;;7.45;;
70080;SDS011;57452;50.496;30.504;2022-07-01T02:06:45;8.23;;;7.43;;
70080;SDS011;57452;50.496;30.504;2022-07-01T02:09:13;8.75;;;7.68;;
70080;SDS011;57452;50.496;30.504;2022-07-01T02:11:40;7.93;;;6.88;;
70080;SDS011;57452;50.496;30.504;2022-07-01T02:14:08;7.25;;;6.55;;
70080;SDS011;57452;50.496;30.504;2022-07-01T02:16:35;7.13;;;5.93;;
70080;SDS011;57452;50.496;30.504;2022-07-01T02:19:02;8.68;;;6.90;;
70080;SDS011;57452;50.496;30.504;2022-07-01T02:21:30;7.13;;;6.43;;
70080;SDS011;57452;50.496;30.504;2022-07-01T02:23:58;8.50;;;7.60;;
70080;SDS011;57452;50.496;30.504;2022-07-01T02:26:25;7.38;;;6.68;;
70080;SDS011;57452;50.496;30.504;2022-07-01T02:28:52;7.35;;;6.18;;
70080;SDS011;57452;50.496;30.504;2022-07-01T02:31:19;8.85;;;7.00;;
70080;SDS011;57452;50.496;30.504;2022-07-01T02:33:47;7.43;;;6.32;;
70080;SDS011;57452;50.496;30.504;2022-07-01T02:36:14;10.32;;;6.53;;
70080;SDS011;57452;50.496;30.504;2022-07-01T02:38:41;7.43;;;6.47;;
70080;SDS011;57452;50.496;30.504;2022-07-01T02:41:08;7.18;;;5.30;;
70080;SDS011;57452;50.496;30.504;2022-07-01T02:43:36;6.90;;;5.80;;
70080;SDS011;57452;50.496;30.504;2022-07-01T02:46:03;7.03;;;6.32;;
70080;SDS011;57452;50.496;30.504;2022-07-01T02:48:30;7.35;;;6.35;;
70080;SDS011;57452;50.496;30.504;2022-07-01T02:50:57;7.63;;;6.93;;
70080;SDS011;57452;50.496;30.504;2022-07-01T02:53:24;8.57;;;7.78;;
70080;SDS011;57452;50.496;30.504;2022-07-01T02:55:52;7.88;;;7.18;;
70080;SDS011;57452;50.496;30.504;2022-07-01T02:58:20;9.05;;;8.15;;
70080;SDS011;57452;50.496;30.504;2022-07-01T03:00:47;9.02;;;8.13;;
70080;SDS011;57452;50.496;30.504;2022-07-01T03:03:16;8.85;;;7.00;;
70080;SDS011;57452;50.496;30.504;2022-07-01T03:05:44;8.23;;;7.43;;
70080;SDS011;57452;50.496;30.504;2022-07-01T03:08:13;11.27;;;7.43;;
70080;SDS011;57452;50.496;30.504;2022-07-01T03:10:41;8.48;;;7.70;;
70080;SDS011;57452;50.496;30.504;2022-07-01T03:13:08;8.40;;;7.60;;
70080;SDS011;57452;50.496;30.504;2022-07-01T03:15:36;8.23;;;6.82;;
70080;SDS011;57452;50.496;30.504;2022-07-01T03:18:03;8.43;;;7.25;;
70080;SDS011;57452;50.496;30.504;2022-07-01T03:20:30;10.25;;;7.43;;
70080;SDS011;57452;50.496;30.504;2022-07-01T03:22:58;9.68;;;7.90;;
70080;SDS011;57452;50.496;30.504;2022-07-01T03:25:25;9.57;;;7.75;;
70080;SDS011;57452;50.496;30.504;2022-07-01T03:27:53;8.45;;;7.65;;
70080;SDS011;57452;50.496;30.504;2022-07-01T03:30:20;8.43;;;7.43;;
70080;SDS011;57452;50.496;30.504;2022-07-01T03:32:47;8.68;;;7.70;;
70080;SDS011;57452;50.496;30.504;2022-07-01T03:35:15;10.65;;;7.97;;
70080;SDS011;57452;50.496;30.504;2022-07-01T03:38:01;9.50;;;8.20;;
70080;SDS011;57452;50.496;30.504;2022-07-01T03:40:30;9.05;;;7.32;;
70080;SDS011;57452;50.496;30.504;2022-07-01T03:42:57;8.23;;;7.43;;
70080;SDS011;57452;50.496;30.504;2022-07-01T03:45:25;8.40;;;6.95;;
70080;SDS011;57452;50.496;30.504;2022-07-01T03:47:52;8.85;;;8.02;;
70080;SDS011;57452;50.496;30.504;2022-07-01T03:50:20;7.88;;;7.18;;
70080;SDS011;57452;50.496;30.504;2022-07-01T03:52:51;9.55;;;7.95;;
70080;SDS011;57452;50.496;30.504;2022-07-01T03:55:37;10.27;;;8.05;;
70080;SDS011;57452;50.496;30.504;2022-07-01T03:58:05;9.65;;;8.13;;
70080;SDS011;57452;50.496;30.504;2022-07-01T04:00:33;8.77;;;7.97;;
70080;SDS011;57452;50.496;30.504;2022-07-01T04:03:01;8.20;;;7.40;;
70080;SDS011;57452;50.496;30.504;2022-07-01T04:05:30;8.07;;;7.32;;
70080;SDS011;57452;50.496;30.504;2022-07-01T04:07:58;9.07;;;7.95;;
70080;SDS011;57452;50.496;30.504;2022-07-01T04:10:28;10.38;;;8.15;;
70080;SDS011;57452;50.496;30.504;2022-07-01T04:12:56;10.50;;;7.43;;
70080;SDS011;57452;50.496;30.504;2022-07-01T04:15:43;8.30;;;7.43;;
70080;SDS011;57452;50.496;30.504;2022-07-01T04:18:11;8.27;;;7.40;;
70080;SDS011;57452;50.496;30.504;2022-07-01T04:20:38;9.35;;;8.05;;
70080;SDS011;57452;50.496;30.504;2022-07-01T04:23:06;8.63;;;7.72;;
70080;SDS011;57452;50.496;30.504;2022-07-01T04:25:33;11.88;;;7.50;;
70080;SDS011;57452;50.496;30.504;2022-07-01T04:28:01;8.98;;;7.45;;
70080;SDS011;57452;50.496;30.504;2022-07-01T04:30:30;9.25;;;7.65;;
70080;SDS011;57452;50.496;30.504;2022-07-01T04:32:57;8.15;;;6.15;;
70080;SDS011;57452;50.496;30.504;2022-07-01T04:35:24;9.38;;;7.80;;
70080;SDS011;57452;50.496;30.504;2022-07-01T04:37:52;8.40;;;6.97;;
70080;SDS011;57452;50.496;30.504;2022-07-01T04:40:21;8.10;;;6.78;;
70080;SDS011;57452;50.496;30.504;2022-07-01T04:42:48;10.77;;;7.55;;
70080;SDS011;57452;50.496;30.504;2022-07-01T04:45:15;9.27;;;7.85;;
70080;SDS011;57452;50.496;30.504;2022-07-01T04:47:43;10.40;;;9.40;;
70080;SDS011;57452;50.496;30.504;2022-07-01T04:50:10;8.50;;;7.35;;
70080;SDS011;57452;50.496;30.504;2022-07-01T04:52:38;7.78;;;7.00;;
70080;SDS011;57452;50.496;30.504;2022-07-01T04:55:05;12.60;;;10.10;;
70080;SDS011;57452;50.496;30.504;2022-07-01T04:57:33;8.73;;;7.82;;
70080;SDS011;57452;50.496;30.504;2022-07-01T05:00:00;12.60;;;7.53;;
70080;SDS011;57452;50.496;30.504;2022-07-01T05:02:28;9.05;;;6.13;;
70080;SDS011;57452;50.496;30.504;2022-07-01T05:04:55;6.65;;;5.93;;
70080;SDS011;57452;50.496;30.504;2022-07-01T05:07:22;8.05;;;6.32;;
70080;SDS011;57452;50.496;30.504;2022-07-01T05:09:57;8.52;;;6.13;;
70080;SDS011;57452;50.496;30.504;2022-07-01T05:12:25;8.20;;;6.88;;
70080;SDS011;57452;50.496;30.504;2022-07-01T05:14:53;8.63;;;7.07;;
70080;SDS011;57452;50.496;30.504;2022-07-01T05:17:20;8.15;;;6.38;;
70080;SDS011;57452;50.496;30.504;2022-07-01T05:20:08;7.03;;;6.38;;
70080;SDS011;57452;50.496;30.504;2022-07-01T05:22:54;8.07;;;6.13;;
70080;SDS011;57452;50.496;30.504;2022-07-01T05:25:21;9.23;;;6.38;;
70080;SDS011;57452;50.496;30.504;2022-07-01T05:27:49;8.90;;;6.32;;
70080;SDS011;57452;50.496;30.504;2022-07-01T05:30:16;9.05;;;6.20;;
70080;SDS011;57452;50.496;30.504;2022-07-01T05:32:44;13.18;;;6.72;;
70080;SDS011;57452;50.496;30.504;2022-07-01T05:35:11;8.27;;;6.72;;
70080;SDS011;57452;50.496;30.504;2022-07-01T05:37:39;7.25;;;6.50;;
70080;SDS011;57452;50.496;30.504;2022-07-01T05:40:06;8.38;;;6.13;;
70080;SDS011;57452;50.496;30.504;2022-07-01T05:42:34;6.38;;;5.78;;
70080;SDS011;57452;50.496;30.504;2022-07-01T05:45:01;10.32;;;7.03;;
70080;SDS011;57452;50.496;30.504;2022-07-01T05:47:29;13.65;;;11.10;;
70080;SDS011;57452;50.496;30.504;2022-07-01T05:49:56;8.45;;;7.30;;
70080;SDS011;57452;50.496;30.504;2022-07-01T05:52:24;8.05;;;5.45;;
70080;SDS011;57452;50.496;30.504;2022-07-01T05:54:51;9.45;;;5.65;;
70080;SDS011;57452;50.496;30.504;2022-07-01T05:57:20;9.52;;;5.78;;
70080;SDS011;57452;50.496;30.504;2022-07-01T05:59:47;6.70;;;5.25;;
70080;SDS011;57452;50.496;30.504;2022-07-01T06:02:16;6.55;;;5.70;;
70080;SDS011;57452;50.496;30.504;2022-07-01T06:04:44;6.88;;;5.25;;
70080;SDS011;57452;50.496;30.504;2022-07-01T06:07:11;6.95;;;5.63;;
70080;SDS011;57452;50.496;30.504;2022-07-01T06:09:39;6.18;;;5.43;;
70080;SDS011;57452;50.496;30.504;2022-07-01T06:12:06;8.07;;;6.38;;
70080;SDS011;57452;50.496;30.504;2022-07-01T06:14:34;6.60;;;5.53;;
70080;SDS011;57452;50.496;30.504;2022-07-01T06:17:04;9.52;;;5.38;;
70080;SDS011;57452;50.496;30.504;2022-07-01T06:19:32;7.30;;;4.85;;
70080;SDS011;57452;50.496;30.504;2022-07-01T06:21:59;5.88;;;4.85;;
70080;SDS011;57452;50.496;30.504;2022-07-01T06:24:26;5.57;;;5.03;;
70080;SDS011;57452;50.496;30.504;2022-07-01T06:26:54;5.25;;;4.75;;
70080;SDS011;57452;50.496;30.504;2022-07-01T06:29:21;5.60;;;4.70;;
70080;SDS011;57452;50.496;30.504;2022-07-01T06:31:49;5.53;;;5.00;;
70080;SDS011;57452;50.496;30.504;2022-07-01T06:34:16;5.85;;;4.75;;
70080;SDS011;57452;50.496;30.504;2022-07-01T06:36:43;10.23;;;5.80;;
70080;SDS011;57452;50.496;30.504;2022-07-01T06:39:11;5.50;;;4.95;;
70080;SDS011;57452;50.496;30.504;2022-07-01T06:41:38;5.97;;;4.28;;
70080;SDS011;57452;50.496;30.504;2022-07-01T06:44:06;5.60;;;5.05;;
70080;SDS011;57452;50.496;30.504;2022-07-01T06:46:33;5.63;;;4.45;;
70080;SDS011;57452;50.496;30.504;2022-07-01T06:49:01;5.30;;;4.80;;
70080;SDS011;57452;50.496;30.504;2022-07-01T06:51:30;5.13;;;4.63;;
70080;SDS011;57452;50.496;30.504;2022-07-01T06:53:57;6.07;;;5.10;;
70080;SDS011;57452;50.496;30.504;2022-07-01T06:56:25;5.78;;;4.85;;
70080;SDS011;57452;50.496;30.504;2022-07-01T06:58:52;6.20;;;4.35;;
70080;SDS011;57452;50.496;30.504;2022-07-01T07:01:20;6.35;;;4.80;;
70080;SDS011;57452;50.496;30.504;2022-07-01T07:03:47;7.32;;;5.07;;
70080;SDS011;57452;50.496;30.504;2022-07-01T07:06:15;6.45;;;5.10;;
70080;SDS011;57452;50.496;30.504;2022-07-01T07:08:42;4.80;;;4.05;;
70080;SDS011;57452;50.496;30.504;2022-07-01T07:11:10;5.65;;;4.68;;
70080;SDS011;57452;50.496;30.504;2022-07-01T07:13:37;6.00;;;5.00;;
70080;SDS011;57452;50.496;30.504;2022-07-01T07:16:05;6.22;;;5.50;;
70080;SDS011;57452;50.496;30.504;2022-07-01T07:18:32;6.50;;;5.30;;
70080;SDS011;57452;50.496;30.504;2022-07-01T07:21:00;5.97;;;5.10;;
70080;SDS011;57452;50.496;30.504;2022-07-01T07:23:28;6.22;;;5.00;;
70080;SDS011;57452;50.496;30.504;2022-07-01T07:25:56;7.38;;;6.00;;
70080;SDS011;57452;50.496;30.504;2022-07-01T07:28:23;7.30;;;6.00;;
70080;SDS011;57452;50.496;30.504;2022-07-01T07:30:51;9.60;;;5.38;;
70080;SDS011;57452;50.496;30.504;2022-07-01T07:33:18;6.50;;;5.20;;
70080;SDS011;57452;50.496;30.504;2022-07-01T07:35:46;7.40;;;5.82;;
70080;SDS011;57452;50.496;30.504;2022-07-01T07:38:13;7.13;;;5.65;;
70080;SDS011;57452;50.496;30.504;2022-07-01T07:40:40;5.82;;;5.05;;
70080;SDS011;57452;50.496;30.504;2022-07-01T07:43:08;6.00;;;5.40;;
70080;SDS011;57452;50.496;30.504;2022-07-01T07:45:35;6.47;;;5.53;;
70080;SDS011;57452;50.496;30.504;2022-07-01T07:48:03;6.70;;;5.10;;
70080;SDS011;57452;50.496;30.504;2022-07-01T07:50:32;6.68;;;5.28;;
70080;SDS011;57452;50.496;30.504;2022-07-01T07:52:59;6.85;;;6.00;;
70080;SDS011;57452;50.496;30.504;2022-07-01T07:55:27;5.78;;;5.28;;
70080;SDS011;57452;50.496;30.504;2022-07-01T07:57:55;6.45;;;5.85;;
70080;SDS011;57452;50.496;30.504;2022-07-01T08:00:22;5.88;;;5.25;;
70080;SDS011;57452;50.496;30.504;2022-07-01T08:02:49;7.53;;;5.10;;
70080;SDS011;57452;50.496;30.504;2022-07-01T08:05:16;8.52;;;5.85;;
70080;SDS011;57452;50.496;30.504;2022-07-01T08:07:44;6.13;;;5.22;;
70080;SDS011;57452;50.496;30.504;2022-07-01T08:10:12;7.40;;;5.53;;
70080;SDS011;57452;50.496;30.504;2022-07-01T08:12:47;6.28;;;4.97;;
70080;SDS011;57452;50.496;30.504;2022-07-01T08:15:15;6.45;;;4.78;;
70080;SDS011;57452;50.496;30.504;2022-07-01T08:17:42;7.88;;;5.28;;
70080;SDS011;57452;50.496;30.504;2022-07-01T08:20:10;6.05;;;5.45;;
70080;SDS011;57452;50.496;30.504;2022-07-01T08:22:38;6.30;;;5.68;;
70080;SDS011;57452;50.496;30.504;2022-07-01T08:25:05;5.97;;;4.88;;
70080;SDS011;57452;50.496;30.504;2022-07-01T08:27:37;4.95;;;4.45;;
70080;SDS011;57452;50.496;30.504;2022-07-01T08:30:09;6.72;;;4.68;;
70080;SDS011;57452;50.496;30.504;2022-07-01T08:32:36;4.70;;;3.85;;
70080;SDS011;57452;50.496;30.504;2022-07-01T08:35:04;6.80;;;4.07;;
70080;SDS011;57452;50.496;30.504;2022-07-01T08:37:34;5.18;;;4.70;;
70080;SDS011;57452;50.496;30.504;2022-07-01T08:40:01;7.30;;;3.83;;
70080;SDS011;57452;50.496;30.504;2022-07-01T08:42:28;4.78;;;3.72;;
70080;SDS011;57452;50.496;30.504;2022-07-01T08:44:56;4.70;;;4.00;;
70080;SDS011;57452;50.496;30.504;2022-07-01T08:47:23;5.53;;;3.88;;
70080;SDS011;57452;50.496;30.504;2022-07-01T08:49:51;4.93;;;4.10;;
70080;SDS011;57452;50.496;30.504;2022-07-01T08:52:18;4.85;;;3.67;;
70080;SDS011;57452;50.496;30.504;2022-07-01T08:54:45;5.25;;;4.45;;
70080;SDS011;57452;50.496;30.504;2022-07-01T08:57:19;5.05;;;4.20;;
70080;SDS011;57452;50.496;30.504;2022-07-01T08:59:59;6.20;;;3.92;;
70080;SDS011;57452;50.496;30.504;2022-07-01T09:02:27;5.50;;;4.10;;
70080;SDS011;57452;50.496;30.504;2022-07-01T09:05:14;4.55;;;3.95;;
70080;SDS011;57452;50.496;30.504;2022-07-01T09:07:42;6.55;;;4.55;;
70080;SDS011;57452;50.496;30.504;2022-07-01T09:10:16;6.95;;;4.75;;
70080;SDS011;57452;50.496;30.504;2022-07-01T09:12:46;5.18;;;4.15;;
70080;SDS011;57452;50.496;30.504;2022-07-01T09:15:23;5.45;;;4.80;;
70080;SDS011;57452;50.496;30.504;2022-07-01T09:18:14;6.15;;;4.70;;
70080;SDS011;57452;50.496;30.504;2022-07-01T09:20:46;6.72;;;4.60;;
70080;SDS011;57452;50.496;30.504;2022-07-01T09:23:15;6.05;;;4.85;;
70080;SDS011;57452;50.496;30.504;2022-07-01T09:25:50;6.93;;;5.63;;
70080;SDS011;57452;50.496;30.504;2022-07-01T09:28:22;6.65;;;5.45;;
70080;SDS011;57452;50.496;30.504;2022-07-01T09:30:55;8.50;;;5.38;;
70080;SDS011;57452;50.496;30.504;2022-07-01T09:33:27;9.15;;;5.13;;
70080;SDS011;57452;50.496;30.504;2022-07-01T09:35:56;10.88;;;4.70;;
70080;SDS011;57452;50.496;30.504;2022-07-01T09:38:24;5.63;;;4.15;;
70080;SDS011;57452;50.496;30.504;2022-07-01T09:40:58;8.25;;;4.30;;
70080;SDS011;57452;50.496;30.504;2022-07-01T09:43:31;4.30;;;3.55;;
70080;SDS011;57452;50.496;30.504;2022-07-01T09:46:09;5.85;;;3.60;;
70080;SDS011;57452;50.496;30.504;2022-07-01T09:51:05;6.53;;;3.45;;
70080;SDS011;57452;50.496;30.504;2022-07-01T09:53:40;6.57;;;3.47;;
70080;SDS011;57452;50.496;30.504;2022-07-01T09:56:08;5.18;;;3.05;;
70080;SDS011;57452;50.496;30.504;2022-07-01T09:58:35;6.22;;;3.78;;
70080;SDS011;57452;50.496;30.504;2022-07-01T10:01:05;4.72;;;3.28;;
70080;SDS011;57452;50.496;30.504;2022-07-01T10:03:36;4.07;;;3.20;;
70080;SDS011;57452;50.496;30.504;2022-07-01T10:14:29;4.10;;;2.70;;
70080;SDS011;57452;50.496;30.504;2022-07-01T10:16:57;3.83;;;2.53;;
70080;SDS011;57452;50.496;30.504;2022-07-01T10:21:53;4.72;;;2.95;;
70080;SDS011;57452;50.496;30.504;2022-07-01T10:24:25;4.50;;;3.05;;
70080;SDS011;57452;50.496;30.504;2022-07-01T10:26:59;4.28;;;2.60;;
70080;SDS011;57452;50.496;30.504;2022-07-01T10:32:07;3.42;;;2.55;;
70080;SDS011;57452;50.496;30.504;2022-07-01T10:35:13;5.70;;;2.45;;
70080;SDS011;57452;50.496;30.504;2022-07-01T10:38:01;5.95;;;2.53;;
70080;SDS011;57452;50.496;30.504;2022-07-01T10:40:44;3.20;;;2.10;;
70080;SDS011;57452;50.496;30.504;2022-07-01T10:43:16;4.30;;;2.50;;
70080;SDS011;57452;50.496;30.504;2022-07-01T10:46:01;2.95;;;2.30;;
70080;SDS011;57452;50.496;30.504;2022-07-01T10:48:32;2.35;;;1.90;;
70080;SDS011;57452;50.496;30.504;2022-07-01T10:51:01;5.65;;;1.90;;
70080;SDS011;57452;50.496;30.504;2022-07-01T10:53:47;3.45;;;1.98;;
70080;SDS011;57452;50.496;30.504;2022-07-01T10:56:23;3.10;;;2.00;;
70080;SDS011;57452;50.496;30.504;2022-07-01T10:59:06;3.40;;;2.00;;
70080;SDS011;57452;50.496;30.504;2022-07-01T11:01:33;3.08;;;2.35;;
70080;SDS011;57452;50.496;30.504;2022-07-01T11:04:01;3.30;;;2.33;;
70080;SDS011;57452;50.496;30.504;2022-07-01T11:06:28;7.30;;;2.92;;
70080;SDS011;57452;50.496;30.504;2022-07-01T11:08:56;4.80;;;2.60;;
70080;SDS011;57452;50.496;30.504;2022-07-01T11:11:28;5.13;;;2.60;;
70080;SDS011;57452;50.496;30.504;2022-07-01T11:13:57;4.95;;;2.65;;
70080;SDS011;57452;50.496;30.504;2022-07-01T11:16:24;2.85;;;2.33;;
70080;SDS011;57452;50.496;30.504;2022-07-01T11:18:54;5.97;;;3.20;;
70080;SDS011;57452;50.496;30.504;2022-07-01T11:21:21;3.75;;;2.45;;
70080;SDS011;57452;50.496;30.504;2022-07-01T11:23:54;2.97;;;2.50;;
70080;SDS011;57452;50.496;30.504;2022-07-01T11:26:25;4.15;;;2.05;;
70080;SDS011;57452;50.496;30.504;2022-07-01T11:28:52;4.20;;;2.30;;
70080;SDS011;57452;50.496;30.504;2022-07-01T11:31:30;4.63;;;2.47;;
70080;SDS011;57452;50.496;30.504;2022-07-01T11:33:58;3.63;;;2.30;;
70080;SDS011;57452;50.496;30.504;2022-07-01T11:36:25;3.72;;;2.30;;
70080;SDS011;57452;50.496;30.504;2022-07-01T11:39:11;3.97;;;2.80;;
70080;SDS011;57452;50.496;30.504;2022-07-01T11:44:34;4.15;;;2.70;;
70080;SDS011;57452;50.496;30.504;2022-07-01T11:47:07;3.92;;;2.22;;
70080;SDS011;57452;50.496;30.504;2022-07-01T11:49:43;3.95;;;2.55;;
70080;SDS011;57452;50.496;30.504;2022-07-01T11:52:12;5.68;;;2.63;;
70080;SDS011;57452;50.496;30.504;2022-07-01T11:54:40;3.85;;;2.67;;
70080;SDS011;57452;50.496;30.504;2022-07-01T11:57:11;3.25;;;2.17;;
70080;SDS011;57452;50.496;30.504;2022-07-01T11:59:40;3.45;;;2.63;;
70080;SDS011;57452;50.496;30.504;2022-07-01T12:02:08;4.20;;;2.28;;
70080;SDS011;57452;50.496;30.504;2022-07-01T12:04:38;3.85;;;2.22;;
70080;SDS011;57452;50.496;30.504;2022-07-01T12:07:06;4.03;;;2.28;;
70080;SDS011;57452;50.496;30.504;2022-07-01T12:09:34;3.92;;;2.30;;
70080;SDS011;57452;50.496;30.504;2022-07-01T12:12:02;2.97;;;2.30;;
70080;SDS011;57452;50.496;30.504;2022-07-01T12:14:31;6.32;;;2.83;;
70080;SDS011;57452;50.496;30.504;2022-07-01T12:17:03;3.85;;;2.17;;
70080;SDS011;57452;50.496;30.504;2022-07-01T12:22:04;5.13;;;2.50;;
70080;SDS011;57452;50.496;30.504;2022-07-01T12:24:32;3.88;;;2.95;;
70080;SDS011;57452;50.496;30.504;2022-07-01T12:29:29;3.08;;;2.20;;
70080;SDS011;57452;50.496;30.504;2022-07-01T12:32:04;3.20;;;2.10;;
70080;SDS011;57452;50.496;30.504;2022-07-01T12:34:51;4.68;;;2.88;;
70080;SDS011;57452;50.496;30.504;2022-07-01T12:37:26;5.00;;;2.25;;
70080;SDS011;57452;50.496;30.504;2022-07-01T12:39:55;3.10;;;2.28;;
70080;SDS011;57452;50.496;30.504;2022-07-01T12:42:36;3.47;;;2.40;;
70080;SDS011;57452;50.496;30.504;2022-07-01T12:45:07;6.65;;;2.33;;
70080;SDS011;57452;50.496;30.504;2022-07-01T12:47:36;3.78;;;2.38;;
70080;SDS011;57452;50.496;30.504;2022-07-01T12:52:39;4.28;;;2.17;;
70080;SDS011;57452;50.496;30.504;2022-07-01T12:55:14;4.32;;;2.35;;
70080;SDS011;57452;50.496;30.504;2022-07-01T12:57:41;3.17;;;1.83;;
70080;SDS011;57452;50.496;30.504;2022-07-01T13:00:09;6.00;;;2.08;;
70080;SDS011;57452;50.496;30.504;2022-07-01T13:02:36;3.60;;;1.92;;
70080;SDS011;57452;50.496;30.504;2022-07-01T13:05:07;3.80;;;2.00;;
70080;SDS011;57452;50.496;30.504;2022-07-01T13:07:34;2.90;;;2.30;;
70080;SDS011;57452;50.496;30.504;2022-07-01T13:10:02;5.03;;;2.40;;
70080;SDS011;57452;50.496;30.504;2022-07-01T13:12:30;3.03;;;1.85;;
70080;SDS011;57452;50.496;30.504;2022-07-01T13:14:57;4.07;;;1.80;;
70080;SDS011;57452;50.496;30.504;2022-07-01T13:17:25;4.20;;;2.17;;
70080;SDS011;57452;50.496;30.504;2022-07-01T13:19:52;5.85;;;1.80;;
70080;SDS011;57452;50.496;30.504;2022-07-01T13:22:20;4.68;;;2.22;;
70080;SDS011;57452;50.496;30.504;2022-07-01T13:24:47;3.60;;;1.77;;
70080;SDS011;57452;50.496;30.504;2022-07-01T13:27:15;3.15;;;1.92;;
70080;SDS011;57452;50.496;30.504;2022-07-01T13:29:45;2.90;;;1.95;;
70080;SDS011;57452;50.496;30.504;2022-07-01T13:32:12;2.42;;;1.65;;
70080;SDS011;57452;50.496;30.504;2022-07-01T13:34:40;3.67;;;2.05;;
70080;SDS011;57452;50.496;30.504;2022-07-01T13:37:12;5.47;;;1.80;;
70080;SDS011;57452;50.496;30.504;2022-07-01T13:39:40;2.88;;;1.80;;
70080;SDS011;57452;50.496;30.504;2022-07-01T13:42:08;3.85;;;2.15;;
70080;SDS011;57452;50.496;30.504;2022-07-01T13:44:35;3.83;;;1.75;;
70080;SDS011;57452;50.496;30.504;2022-07-01T13:47:03;4.82;;;2.47;;
70080;SDS011;57452;50.496;30.504;2022-07-01T13:49:36;3.13;;;2.17;;
70080;SDS011;57452;50.496;30.504;2022-07-01T13:52:04;4.45;;;1.98;;
70080;SDS011;57452;50.496;30.504;2022-07-01T13:54:32;2.70;;;1.55;;
70080;SDS011;57452;50.496;30.504;2022-07-01T13:56:59;3.05;;;1.52;;
70080;SDS011;57452;50.496;30.504;2022-07-01T13:59:27;5.32;;;1.70;;
70080;SDS011;57452;50.496;30.504;2022-07-01T14:01:54;2.67;;;1.30;;
70080;SDS011;57452;50.496;30.504;2022-07-01T14:04:22;2.70;;;1.48;;
70080;SDS011;57452;50.496;30.504;2022-07-01T14:06:50;3.45;;;1.23;;
70080;SDS011;57452;50.496;30.504;2022-07-01T14:09:17;3.10;;;1.20;;
70080;SDS011;57452;50.496;30.504;2022-07-01T14:11:45;3.50;;;1.52;;
70080;SDS011;57452;50.496;30.504;2022-07-01T14:14:13;2.05;;;1.30;;
70080;SDS011;57452;50.496;30.504;2022-07-01T14:16:40;2.42;;;1.42;;
70080;SDS011;57452;50.496;30.504;2022-07-01T14:19:07;2.30;;;1.45;;
70080;SDS011;57452;50.496;30.504;2022-07-01T14:21:34;1.60;;;1.20;;
70080;SDS011;57452;50.496;30.504;2022-07-01T14:24:04;4.90;;;1.58;;
70080;SDS011;57452;50.496;30.504;2022-07-01T14:26:32;2.38;;;1.50;;
70080;SDS011;57452;50.496;30.504;2022-07-01T14:28:59;1.98;;;1.35;;
70080;SDS011;57452;50.496;30.504;2022-07-01T14:31:27;2.03;;;1.50;;
70080;SDS011;57452;50.496;30.504;2022-07-01T14:33:54;5.43;;;1.63;;
70080;SDS011;57452;50.496;30.504;2022-07-01T14:36:21;2.40;;;1.30;;
70080;SDS011;57452;50.496;30.504;2022-07-01T14:38:50;2.08;;;1.40;;
70080;SDS011;57452;50.496;30.504;2022-07-01T14:41:18;4.28;;;1.50;;
70080;SDS011;57452;50.496;30.504;2022-07-01T14:43:45;2.08;;;1.23;;
70080;SDS011;57452;50.496;30.504;2022-07-01T14:46:15;2.63;;;1.30;;
70080;SDS011;57452;50.496;30.504;2022-07-01T14:48:42;1.98;;;1.40;;
70080;SDS011;57452;50.496;30.504;2022-07-01T14:51:11;4.30;;;1.60;;
70080;SDS011;57452;50.496;30.504;2022-07-01T14:53:38;2.40;;;1.60;;
70080;SDS011;57452;50.496;30.504;2022-07-01T14:56:17;3.20;;;1.60;;
70080;SDS011;57452;50.496;30.504;2022-07-01T14:58:44;2.95;;;1.40;;
70080;SDS011;57452;50.496;30.504;2022-07-01T15:01:14;3.75;;;1.33;;
70080;SDS011;57452;50.496;30.504;2022-07-01T15:03:42;4.28;;;1.20;;
70080;SDS011;57452;50.496;30.504;2022-07-01T15:06:09;4.45;;;1.65;;
70080;SDS011;57452;50.496;30.504;2022-07-01T15:08:37;2.13;;;1.42;;
70080;SDS011;57452;50.496;30.504;2022-07-01T15:11:07;3.22;;;1.48;;